sensor_id;sensor_type;location;lat;lon;timestamp;temperature;humidity
5222;DHT22;2630;52.036;8.514;2022-09-09T00:02:11;16.00;99.90
5222;DHT22;2630;52.036;8.514;2022-09-09T00:05:32;16.00;99.90
5222;DHT22;2630;52.036;8.514;2022-09-09T00:10:17;16.00;99.90
5222;DHT22;2630;52.036;8.514;2022-09-09T00:18:24;16.10;99.90
5222;DHT22;2630;52.036;8.514;2022-09-09T00:21:15;16.10;99.90
5222;DHT22;2630;52.036;8.514;2022-09-09T00:23:53;16.10;99.90
5222;DHT22;2630;52.036;8.514;2022-09-09T00:31:24;16.20;99.90
5222;DHT22;2630;52.036;8.514;2022-09-09T00:33:50;16.20;99.90
5222;DHT22;2630;52.036;8.514;2022-09-09T00:36:21;16.30;99.90
5222;DHT22;2630;52.036;8.514;2022-09-09T00:38:55;16.30;99.90
5222;DHT22;2630;52.036;8.514;2022-09-09T00:49:47;16.00;99.90
5222;DHT22;2630;52.036;8.514;2022-09-09T00:57:44;15.90;99.90
5222;DHT22;2630;52.036;8.514;2022-09-09T01:05:35;15.80;99.90
5222;DHT22;2630;52.036;8.514;2022-09-09T01:08:08;15.70;99.90
5222;DHT22;2630;52.036;8.514;2022-09-09T01:10:52;15.80;99.90
5222;DHT22;2630;52.036;8.514;2022-09-09T01:13:30;15.70;99.90
5222;DHT22;2630;52.036;8.514;2022-09-09T01:16:02;15.70;99.90
5222;DHT22;2630;52.036;8.514;2022-09-09T01:18:40;15.80;99.90
5222;DHT22;2630;52.036;8.514;2022-09-09T01:26:52;15.70;99.90
5222;DHT22;2630;52.036;8.514;2022-09-09T01:29:21;15.70;99.90
5222;DHT22;2630;52.036;8.514;2022-09-09T01:31:59;15.70;99.90
5222;DHT22;2630;52.036;8.514;2022-09-09T01:34:36;15.80;99.90
5222;DHT22;2630;52.036;8.514;2022-09-09T01:37:09;15.80;99.90
5222;DHT22;2630;52.036;8.514;2022-09-09T01:39:37;15.70;99.90
5222;DHT22;2630;52.036;8.514;2022-09-09T01:42:06;15.80;99.90
5222;DHT22;2630;52.036;8.514;2022-09-09T01:44:34;15.90;99.90
5222;DHT22;2630;52.036;8.514;2022-09-09T01:47:01;15.90;99.90
5222;DHT22;2630;52.036;8.514;2022-09-09T01:49:27;15.90;99.90
5222;DHT22;2630;52.036;8.514;2022-09-09T01:54:22;15.90;99.90
5222;DHT22;2630;52.036;8.514;2022-09-09T01:57:25;15.90;99.90
5222;DHT22;2630;52.036;8.514;2022-09-09T02:00:06;15.90;99.90
5222;DHT22;2630;52.036;8.514;2022-09-09T02:02:47;15.90;99.90
5222;DHT22;2630;52.036;8.514;2022-09-09T02:05:36;15.80;99.90
5222;DHT22;2630;52.036;8.514;2022-09-09T02:11:01;15.70;99.90
5222;DHT22;2630;52.036;8.514;2022-09-09T02:16:07;15.70;99.90
5222;DHT22;2630;52.036;8.514;2022-09-09T02:21:03;15.70;99.90
5222;DHT22;2630;52.036;8.514;2022-09-09T02:23:29;15.70;99.90
5222;DHT22;2630;52.036;8.514;2022-09-09T02:25:57;15.70;99.90
5222;DHT22;2630;52.036;8.514;2022-09-09T02:28:26;15.70;99.90
5222;DHT22;2630;52.036;8.514;2022-09-09T02:30:53;15.60;99.90
5222;DHT22;2630;52.036;8.514;2022-09-09T02:33:26;16.60;99.90
5222;DHT22;2630;52.036;8.514;2022-09-09T02:35:53;15.50;99.90
5222;DHT22;2630;52.036;8.514;2022-09-09T02:38:24;15.60;99.90
5222;DHT22;2630;52.036;8.514;2022-09-09T02:40:52;15.60;99.90
5222;DHT22;2630;52.036;8.514;2022-09-09T02:43:18;15.70;99.90
5222;DHT22;2630;52.036;8.514;2022-09-09T02:49:09;15.80;99.90
5222;DHT22;2630;52.036;8.514;2022-09-09T02:51:38;15.70;99.90
5222;DHT22;2630;52.036;8.514;2022-09-09T02:56:53;15.90;99.90
5222;DHT22;2630;52.036;8.514;2022-09-09T02:59:24;15.80;99.90
5222;DHT22;2630;52.036;8.514;2022-09-09T03:01:50;15.70;99.90
5222;DHT22;2630;52.036;8.514;2022-09-09T03:04:16;15.70;99.90
5222;DHT22;2630;52.036;8.514;2022-09-09T03:06:41;15.70;99.90
5222;DHT22;2630;52.036;8.514;2022-09-09T03:09:07;15.60;99.90
5222;DHT22;2630;52.036;8.514;2022-09-09T03:11:35;15.60;99.90
5222;DHT22;2630;52.036;8.514;2022-09-09T03:14:02;15.50;99.90
5222;DHT22;2630;52.036;8.514;2022-09-09T03:18:54;15.40;99.90
5222;DHT22;2630;52.036;8.514;2022-09-09T03:21:19;15.40;99.90
5222;DHT22;2630;52.036;8.514;2022-09-09T03:23:45;15.30;99.90
5222;DHT22;2630;52.036;8.514;2022-09-09T03:26:10;15.40;99.90
5222;DHT22;2630;52.036;8.514;2022-09-09T03:28:36;15.40;99.90
5222;DHT22;2630;52.036;8.514;2022-09-09T03:31:03;15.50;99.90
5222;DHT22;2630;52.036;8.514;2022-09-09T03:33:29;15.50;99.90
5222;DHT22;2630;52.036;8.514;2022-09-09T03:35:55;15.60;99.90
5222;DHT22;2630;52.036;8.514;2022-09-09T03:38:22;15.60;99.90
5222;DHT22;2630;52.036;8.514;2022-09-09T03:40:52;15.70;99.90
5222;DHT22;2630;52.036;8.514;2022-09-09T03:43:23;15.70;99.90
5222;DHT22;2630;52.036;8.514;2022-09-09T03:45:49;15.80;99.90
5222;DHT22;2630;52.036;8.514;2022-09-09T03:48:15;15.80;99.90
5222;DHT22;2630;52.036;8.514;2022-09-09T03:50:45;15.70;99.90
5222;DHT22;2630;52.036;8.514;2022-09-09T03:53:11;15.80;99.90
5222;DHT22;2630;52.036;8.514;2022-09-09T03:55:37;15.70;99.90
5222;DHT22;2630;52.036;8.514;2022-09-09T03:58:02;15.80;99.90
5222;DHT22;2630;52.036;8.514;2022-09-09T04:00:28;15.80;99.90
5222;DHT22;2630;52.036;8.514;2022-09-09T04:02:54;15.80;99.90
5222;DHT22;2630;52.036;8.514;2022-09-09T04:05:21;15.80;99.90
5222;DHT22;2630;52.036;8.514;2022-09-09T04:07:46;15.70;99.90
5222;DHT22;2630;52.036;8.514;2022-09-09T04:10:12;15.80;99.90
5222;DHT22;2630;52.036;8.514;2022-09-09T04:12:39;15.80;99.90
5222;DHT22;2630;52.036;8.514;2022-09-09T04:15:05;15.70;99.90
5222;DHT22;2630;52.036;8.514;2022-09-09T04:17:31;15.70;99.90
5222;DHT22;2630;52.036;8.514;2022-09-09T04:19:56;15.70;99.90
5222;DHT22;2630;52.036;8.514;2022-09-09T04:22:22;15.70;99.90
5222;DHT22;2630;52.036;8.514;2022-09-09T04:24:48;15.80;99.90
5222;DHT22;2630;52.036;8.514;2022-09-09T04:27:13;15.80;99.90
5222;DHT22;2630;52.036;8.514;2022-09-09T04:29:39;15.70;99.90
5222;DHT22;2630;52.036;8.514;2022-09-09T04:32:04;15.70;99.90
5222;DHT22;2630;52.036;8.514;2022-09-09T04:34:30;15.60;99.90
5222;DHT22;2630;52.036;8.514;2022-09-09T04:36:56;15.60;99.90
5222;DHT22;2630;52.036;8.514;2022-09-09T04:39:22;15.40;99.90
5222;DHT22;2630;52.036;8.514;2022-09-09T04:41:48;15.40;99.90
5222;DHT22;2630;52.036;8.514;2022-09-09T04:46:39;15.30;99.90
5222;DHT22;2630;52.036;8.514;2022-09-09T04:49:06;15.20;99.90
5222;DHT22;2630;52.036;8.514;2022-09-09T04:51:32;15.20;99.90
5222;DHT22;2630;52.036;8.514;2022-09-09T04:58:52;15.10;99.90
5222;DHT22;2630;52.036;8.514;2022-09-09T05:01:20;15.20;99.90
5222;DHT22;2630;52.036;8.514;2022-09-09T05:03:47;15.20;99.90
5222;DHT22;2630;52.036;8.514;2022-09-09T05:06:18;15.20;99.90
5222;DHT22;2630;52.036;8.514;2022-09-09T05:08:44;15.20;99.90
5222;DHT22;2630;52.036;8.514;2022-09-09T05:11:35;15.30;99.90
5222;DHT22;2630;52.036;8.514;2022-09-09T05:14:02;15.30;99.90
5222;DHT22;2630;52.036;8.514;2022-09-09T05:21:23;15.40;99.90
5222;DHT22;2630;52.036;8.514;2022-09-09T05:23:50;15.40;99.90
5222;DHT22;2630;52.036;8.514;2022-09-09T05:26:20;15.40;99.90
5222;DHT22;2630;52.036;8.514;2022-09-09T05:28:46;15.40;99.90
5222;DHT22;2630;52.036;8.514;2022-09-09T05:31:13;15.40;99.90
5222;DHT22;2630;52.036;8.514;2022-09-09T05:33:44;15.40;99.90
5222;DHT22;2630;52.036;8.514;2022-09-09T05:36:16;15.40;99.90
5222;DHT22;2630;52.036;8.514;2022-09-09T05:38:43;15.40;99.90
5222;DHT22;2630;52.036;8.514;2022-09-09T05:41:10;15.40;99.90
5222;DHT22;2630;52.036;8.514;2022-09-09T05:43:36;15.50;99.90
5222;DHT22;2630;52.036;8.514;2022-09-09T05:46:13;15.50;99.90
5222;DHT22;2630;52.036;8.514;2022-09-09T05:48:44;15.60;99.90
5222;DHT22;2630;52.036;8.514;2022-09-09T05:51:21;15.70;99.90
5222;DHT22;2630;52.036;8.514;2022-09-09T05:53:48;15.70;99.90
5222;DHT22;2630;52.036;8.514;2022-09-09T05:56:16;15.80;99.90
5222;DHT22;2630;52.036;8.514;2022-09-09T05:58:43;16.00;99.90
5222;DHT22;2630;52.036;8.514;2022-09-09T06:01:29;16.10;99.90
5222;DHT22;2630;52.036;8.514;2022-09-09T06:06:24;16.20;99.90
5222;DHT22;2630;52.036;8.514;2022-09-09T06:08:53;16.20;99.90
5222;DHT22;2630;52.036;8.514;2022-09-09T06:11:23;16.20;99.90
5222;DHT22;2630;52.036;8.514;2022-09-09T06:13:50;16.20;99.90
5222;DHT22;2630;52.036;8.514;2022-09-09T06:16:22;16.30;99.90
5222;DHT22;2630;52.036;8.514;2022-09-09T06:18:52;16.50;99.90
5222;DHT22;2630;52.036;8.514;2022-09-09T06:21:39;16.50;99.90
5222;DHT22;2630;52.036;8.514;2022-09-09T06:29:00;16.40;99.90
5222;DHT22;2630;52.036;8.514;2022-09-09T06:33:59;16.50;99.90
5222;DHT22;2630;52.036;8.514;2022-09-09T06:36:33;16.50;99.90
5222;DHT22;2630;52.036;8.514;2022-09-09T06:38:59;16.60;99.90
5222;DHT22;2630;52.036;8.514;2022-09-09T06:41:28;16.70;99.90
5222;DHT22;2630;52.036;8.514;2022-09-09T06:43:54;16.80;99.90
5222;DHT22;2630;52.036;8.514;2022-09-09T06:46:28;16.90;99.90
5222;DHT22;2630;52.036;8.514;2022-09-09T06:48:56;16.90;99.90
5222;DHT22;2630;52.036;8.514;2022-09-09T06:51:24;17.00;99.90
5222;DHT22;2630;52.036;8.514;2022-09-09T06:53:52;17.00;99.90
5222;DHT22;2630;52.036;8.514;2022-09-09T06:56:20;17.00;99.90
5222;DHT22;2630;52.036;8.514;2022-09-09T06:58:47;17.10;99.90
5222;DHT22;2630;52.036;8.514;2022-09-09T07:01:21;17.20;99.90
5222;DHT22;2630;52.036;8.514;2022-09-09T07:08:51;17.00;99.90
5222;DHT22;2630;52.036;8.514;2022-09-09T07:11:19;17.00;99.90
5222;DHT22;2630;52.036;8.514;2022-09-09T07:16:14;17.00;99.90
5222;DHT22;2630;52.036;8.514;2022-09-09T07:18:40;17.00;99.90
5222;DHT22;2630;52.036;8.514;2022-09-09T07:21:08;17.00;99.90
5222;DHT22;2630;52.036;8.514;2022-09-09T07:23:34;17.10;99.90
5222;DHT22;2630;52.036;8.514;2022-09-09T07:26:02;17.10;99.90
5222;DHT22;2630;52.036;8.514;2022-09-09T07:28:28;17.10;99.90
5222;DHT22;2630;52.036;8.514;2022-09-09T07:31:00;17.20;99.90
5222;DHT22;2630;52.036;8.514;2022-09-09T07:33:30;17.30;99.90
5222;DHT22;2630;52.036;8.514;2022-09-09T07:38:40;17.50;99.90
5222;DHT22;2630;52.036;8.514;2022-09-09T07:41:15;17.60;99.90
5222;DHT22;2630;52.036;8.514;2022-09-09T07:43:42;17.60;99.90
5222;DHT22;2630;52.036;8.514;2022-09-09T07:46:09;17.60;99.90
5222;DHT22;2630;52.036;8.514;2022-09-09T07:48:35;17.60;99.90
5222;DHT22;2630;52.036;8.514;2022-09-09T07:51:13;17.70;99.90
5222;DHT22;2630;52.036;8.514;2022-09-09T07:53:43;17.80;99.90
5222;DHT22;2630;52.036;8.514;2022-09-09T07:56:11;17.90;99.90
5222;DHT22;2630;52.036;8.514;2022-09-09T07:58:38;18.00;99.90
5222;DHT22;2630;52.036;8.514;2022-09-09T08:03:34;18.10;99.90
5222;DHT22;2630;52.036;8.514;2022-09-09T08:06:01;18.20;99.90
5222;DHT22;2630;52.036;8.514;2022-09-09T08:08:28;18.30;99.90
5222;DHT22;2630;52.036;8.514;2022-09-09T08:10:53;18.40;99.90
5222;DHT22;2630;52.036;8.514;2022-09-09T08:13:19;18.50;99.90
5222;DHT22;2630;52.036;8.514;2022-09-09T08:15:44;18.60;99.90
5222;DHT22;2630;52.036;8.514;2022-09-09T08:18:10;18.80;99.90
5222;DHT22;2630;52.036;8.514;2022-09-09T08:23:03;19.10;99.90
5222;DHT22;2630;52.036;8.514;2022-09-09T08:25:30;19.30;99.90
5222;DHT22;2630;52.036;8.514;2022-09-09T08:27:55;19.30;99.90
5222;DHT22;2630;52.036;8.514;2022-09-09T08:30:21;19.30;99.90
5222;DHT22;2630;52.036;8.514;2022-09-09T08:32:48;19.30;99.90
5222;DHT22;2630;52.036;8.514;2022-09-09T08:35:16;19.50;99.90
5222;DHT22;2630;52.036;8.514;2022-09-09T08:37:42;19.70;99.90
5222;DHT22;2630;52.036;8.514;2022-09-09T08:42:49;20.00;99.90
5222;DHT22;2630;52.036;8.514;2022-09-09T08:47:54;19.90;99.90
5222;DHT22;2630;52.036;8.514;2022-09-09T08:50:34;19.90;99.90
5222;DHT22;2630;52.036;8.514;2022-09-09T09:14:30;22.70;99.90
5222;DHT22;2630;52.036;8.514;2022-09-09T09:16:57;21.80;99.90
5222;DHT22;2630;52.036;8.514;2022-09-09T09:19:24;21.30;99.90
5222;DHT22;2630;52.036;8.514;2022-09-09T09:24:49;20.50;99.90
5222;DHT22;2630;52.036;8.514;2022-09-09T09:27:27;20.80;99.90
5222;DHT22;2630;52.036;8.514;2022-09-09T09:29:56;21.10;99.90
5222;DHT22;2630;52.036;8.514;2022-09-09T09:32:24;21.00;99.90
5222;DHT22;2630;52.036;8.514;2022-09-09T09:34:54;20.90;99.90
5222;DHT22;2630;52.036;8.514;2022-09-09T09:37:29;20.70;99.90
5222;DHT22;2630;52.036;8.514;2022-09-09T09:39:55;21.00;99.90
5222;DHT22;2630;52.036;8.514;2022-09-09T09:42:21;21.40;99.90
5222;DHT22;2630;52.036;8.514;2022-09-09T09:47:21;21.50;99.90
5222;DHT22;2630;52.036;8.514;2022-09-09T09:54:47;21.40;99.90
5222;DHT22;2630;52.036;8.514;2022-09-09T09:59:42;20.60;99.90
5222;DHT22;2630;52.036;8.514;2022-09-09T10:02:23;20.00;99.90
5222;DHT22;2630;52.036;8.514;2022-09-09T10:07:39;19.50;99.90
5222;DHT22;2630;52.036;8.514;2022-09-09T10:10:05;19.50;99.90
5222;DHT22;2630;52.036;8.514;2022-09-09T10:28:39;24.20;99.90
5222;DHT22;2630;52.036;8.514;2022-09-09T10:31:34;24.50;99.90
5222;DHT22;2630;52.036;8.514;2022-09-09T10:34:43;25.20;99.90
5222;DHT22;2630;52.036;8.514;2022-09-09T10:40:02;25.90;99.90
5222;DHT22;2630;52.036;8.514;2022-09-09T10:42:31;24.00;99.90
5222;DHT22;2630;52.036;8.514;2022-09-09T10:45:17;23.50;99.90
5222;DHT22;2630;52.036;8.514;2022-09-09T10:48:01;23.20;99.90
5222;DHT22;2630;52.036;8.514;2022-09-09T10:53:42;21.90;99.90
5222;DHT22;2630;52.036;8.514;2022-09-09T10:56:13;21.80;99.90
5222;DHT22;2630;52.036;8.514;2022-09-09T10:58:46;21.60;99.90
5222;DHT22;2630;52.036;8.514;2022-09-09T11:01:31;21.30;99.90
5222;DHT22;2630;52.036;8.514;2022-09-09T11:04:12;21.00;99.90
5222;DHT22;2630;52.036;8.514;2022-09-09T11:06:45;20.80;99.90
5222;DHT22;2630;52.036;8.514;2022-09-09T11:09:33;20.70;99.90
5222;DHT22;2630;52.036;8.514;2022-09-09T11:12:02;20.70;99.90
5222;DHT22;2630;52.036;8.514;2022-09-09T11:14:41;20.70;99.90
5222;DHT22;2630;52.036;8.514;2022-09-09T11:17:18;20.90;99.90
5222;DHT22;2630;52.036;8.514;2022-09-09T11:19:44;21.00;99.90
5222;DHT22;2630;52.036;8.514;2022-09-09T11:22:27;21.30;99.90
5222;DHT22;2630;52.036;8.514;2022-09-09T11:25:47;21.50;99.90
5222;DHT22;2630;52.036;8.514;2022-09-09T11:28:08;21.50;99.90
5222;DHT22;2630;52.036;8.514;2022-09-09T11:38:46;21.90;99.90
5222;DHT22;2630;52.036;8.514;2022-09-09T11:41:13;21.90;99.90
5222;DHT22;2630;52.036;8.514;2022-09-09T11:43:45;21.80;99.90
5222;DHT22;2630;52.036;8.514;2022-09-09T11:46:14;21.70;99.90
5222;DHT22;2630;52.036;8.514;2022-09-09T11:48:44;21.50;99.90
5222;DHT22;2630;52.036;8.514;2022-09-09T11:53:55;21.20;99.90
5222;DHT22;2630;52.036;8.514;2022-09-09T11:56:32;21.50;99.90
5222;DHT22;2630;52.036;8.514;2022-09-09T11:59:16;21.60;99.90
5222;DHT22;2630;52.036;8.514;2022-09-09T12:01:43;21.80;99.90
5222;DHT22;2630;52.036;8.514;2022-09-09T12:04:17;21.80;99.90
5222;DHT22;2630;52.036;8.514;2022-09-09T12:09:42;22.00;99.90
5222;DHT22;2630;52.036;8.514;2022-09-09T12:17:22;21.90;99.90
5222;DHT22;2630;52.036;8.514;2022-09-09T12:19:59;21.70;99.90
5222;DHT22;2630;52.036;8.514;2022-09-09T12:33:13;21.90;99.90
5222;DHT22;2630;52.036;8.514;2022-09-09T12:35:43;22.40;99.90
5222;DHT22;2630;52.036;8.514;2022-09-09T12:38:22;22.70;99.90
5222;DHT22;2630;52.036;8.514;2022-09-09T12:40:56;22.60;99.90
5222;DHT22;2630;52.036;8.514;2022-09-09T12:43:24;22.60;99.90
5222;DHT22;2630;52.036;8.514;2022-09-09T12:46:06;22.40;99.90
5222;DHT22;2630;52.036;8.514;2022-09-09T12:48:37;22.20;99.90
5222;DHT22;2630;52.036;8.514;2022-09-09T12:51:05;22.10;99.90
5222;DHT22;2630;52.036;8.514;2022-09-09T12:56:18;21.90;99.90
5222;DHT22;2630;52.036;8.514;2022-09-09T12:58:47;21.70;99.90
5222;DHT22;2630;52.036;8.514;2022-09-09T13:01:26;21.60;99.90
5222;DHT22;2630;52.036;8.514;2022-09-09T13:03:54;21.50;99.90
5222;DHT22;2630;52.036;8.514;2022-09-09T13:06:25;21.40;99.90
5222;DHT22;2630;52.036;8.514;2022-09-09T13:08:55;21.30;99.90
5222;DHT22;2630;52.036;8.514;2022-09-09T13:11:35;21.30;99.90
5222;DHT22;2630;52.036;8.514;2022-09-09T13:14:02;21.20;99.90
5222;DHT22;2630;52.036;8.514;2022-09-09T13:16:30;21.30;99.90
5222;DHT22;2630;52.036;8.514;2022-09-09T13:19:01;21.30;99.90
5222;DHT22;2630;52.036;8.514;2022-09-09T13:21:38;21.30;99.90
5222;DHT22;2630;52.036;8.514;2022-09-09T13:24:33;21.30;99.90
5222;DHT22;2630;52.036;8.514;2022-09-09T13:27:05;21.40;99.90
5222;DHT22;2630;52.036;8.514;2022-09-09T13:29:51;21.50;99.90
5222;DHT22;2630;52.036;8.514;2022-09-09T13:32:17;21.60;99.90
5222;DHT22;2630;52.036;8.514;2022-09-09T13:34:57;21.70;99.90
5222;DHT22;2630;52.036;8.514;2022-09-09T13:37:29;21.90;99.90
5222;DHT22;2630;52.036;8.514;2022-09-09T13:39:56;21.90;99.90
5222;DHT22;2630;52.036;8.514;2022-09-09T13:42:28;21.80;99.90
5222;DHT22;2630;52.036;8.514;2022-09-09T13:44:55;21.90;99.90
5222;DHT22;2630;52.036;8.514;2022-09-09T13:47:33;22.00;99.90
5222;DHT22;2630;52.036;8.514;2022-09-09T13:50:20;22.20;99.90
5222;DHT22;2630;52.036;8.514;2022-09-09T13:55:17;22.60;99.90
5222;DHT22;2630;52.036;8.514;2022-09-09T13:58:03;22.50;99.90
5222;DHT22;2630;52.036;8.514;2022-09-09T14:00:32;22.60;99.90
5222;DHT22;2630;52.036;8.514;2022-09-09T14:02:57;22.90;99.90
5222;DHT22;2630;52.036;8.514;2022-09-09T14:05:23;23.20;99.90
5222;DHT22;2630;52.036;8.514;2022-09-09T14:07:50;23.60;99.90
5222;DHT22;2630;52.036;8.514;2022-09-09T14:10:16;23.90;99.90
5222;DHT22;2630;52.036;8.514;2022-09-09T14:12:41;24.60;99.90
5222;DHT22;2630;52.036;8.514;2022-09-09T14:15:09;24.60;99.90
5222;DHT22;2630;52.036;8.514;2022-09-09T14:17:35;24.40;99.90
5222;DHT22;2630;52.036;8.514;2022-09-09T14:20:05;24.30;99.90
5222;DHT22;2630;52.036;8.514;2022-09-09T14:22:34;24.40;99.90
5222;DHT22;2630;52.036;8.514;2022-09-09T14:25:01;23.90;99.90
5222;DHT22;2630;52.036;8.514;2022-09-09T14:27:26;23.40;99.90
5222;DHT22;2630;52.036;8.514;2022-09-09T14:29:52;22.90;99.90
5222;DHT22;2630;52.036;8.514;2022-09-09T14:32:19;22.50;99.90
5222;DHT22;2630;52.036;8.514;2022-09-09T14:34:45;22.20;99.90
5222;DHT22;2630;52.036;8.514;2022-09-09T14:39:36;22.00;99.90
5222;DHT22;2630;52.036;8.514;2022-09-09T14:42:02;22.10;99.90
5222;DHT22;2630;52.036;8.514;2022-09-09T14:44:28;22.30;99.90
5222;DHT22;2630;52.036;8.514;2022-09-09T14:46:53;22.50;99.90
5222;DHT22;2630;52.036;8.514;2022-09-09T14:49:19;22.60;99.90
5222;DHT22;2630;52.036;8.514;2022-09-09T14:51:45;22.80;99.90
5222;DHT22;2630;52.036;8.514;2022-09-09T14:54:11;22.60;99.90
5222;DHT22;2630;52.036;8.514;2022-09-09T14:56:37;22.30;99.90
5222;DHT22;2630;52.036;8.514;2022-09-09T14:59:03;22.00;99.90
5222;DHT22;2630;52.036;8.514;2022-09-09T15:01:30;21.80;99.90
5222;DHT22;2630;52.036;8.514;2022-09-09T15:03:59;21.80;99.90
5222;DHT22;2630;52.036;8.514;2022-09-09T15:06:27;21.70;99.90
5222;DHT22;2630;52.036;8.514;2022-09-09T15:08:53;21.70;99.90
5222;DHT22;2630;52.036;8.514;2022-09-09T15:11:20;21.70;99.90
5222;DHT22;2630;52.036;8.514;2022-09-09T15:13:46;21.80;99.90
5222;DHT22;2630;52.036;8.514;2022-09-09T15:16:15;21.80;99.90
5222;DHT22;2630;52.036;8.514;2022-09-09T15:18:41;21.70;99.90
5222;DHT22;2630;52.036;8.514;2022-09-09T15:21:11;21.70;99.90
5222;DHT22;2630;52.036;8.514;2022-09-09T15:23:38;21.60;99.90
5222;DHT22;2630;52.036;8.514;2022-09-09T15:26:04;21.60;99.90
5222;DHT22;2630;52.036;8.514;2022-09-09T15:28:31;21.60;99.90
5222;DHT22;2630;52.036;8.514;2022-09-09T15:30:58;21.60;99.90
5222;DHT22;2630;52.036;8.514;2022-09-09T15:33:25;21.50;99.90
5222;DHT22;2630;52.036;8.514;2022-09-09T15:35:50;21.50;99.90
5222;DHT22;2630;52.036;8.514;2022-09-09T15:38:16;21.50;99.90
5222;DHT22;2630;52.036;8.514;2022-09-09T15:40:43;21.40;99.90
5222;DHT22;2630;52.036;8.514;2022-09-09T15:43:09;21.40;99.90
5222;DHT22;2630;52.036;8.514;2022-09-09T15:45:36;21.40;99.90
5222;DHT22;2630;52.036;8.514;2022-09-09T15:50:29;21.40;99.90
5222;DHT22;2630;52.036;8.514;2022-09-09T15:53:01;21.40;99.90
5222;DHT22;2630;52.036;8.514;2022-09-09T15:55:26;21.30;99.90
5222;DHT22;2630;52.036;8.514;2022-09-09T15:57:52;21.20;99.90
5222;DHT22;2630;52.036;8.514;2022-09-09T16:02:47;21.00;99.90
5222;DHT22;2630;52.036;8.514;2022-09-09T16:05:12;20.80;99.90
5222;DHT22;2630;52.036;8.514;2022-09-09T16:07:38;20.60;99.90
5222;DHT22;2630;52.036;8.514;2022-09-09T16:12:30;20.50;99.90
5222;DHT22;2630;52.036;8.514;2022-09-09T16:14:56;20.40;99.90
5222;DHT22;2630;52.036;8.514;2022-09-09T16:17:22;20.30;99.90
5222;DHT22;2630;52.036;8.514;2022-09-09T16:19:47;20.20;99.90
5222;DHT22;2630;52.036;8.514;2022-09-09T16:22:13;20.20;99.90
5222;DHT22;2630;52.036;8.514;2022-09-09T16:24:41;20.20;99.90
5222;DHT22;2630;52.036;8.514;2022-09-09T16:27:06;20.10;99.90
5222;DHT22;2630;52.036;8.514;2022-09-09T16:29:32;20.10;99.90
5222;DHT22;2630;52.036;8.514;2022-09-09T16:31:57;20.10;99.90
5222;DHT22;2630;52.036;8.514;2022-09-09T16:34:24;20.10;99.90
5222;DHT22;2630;52.036;8.514;2022-09-09T16:36:50;20.10;99.90
5222;DHT22;2630;52.036;8.514;2022-09-09T16:39:18;20.10;99.90
5222;DHT22;2630;52.036;8.514;2022-09-09T16:41:45;20.10;99.90
5222;DHT22;2630;52.036;8.514;2022-09-09T16:44:12;20.10;99.90
5222;DHT22;2630;52.036;8.514;2022-09-09T16:46:40;20.00;99.90
5222;DHT22;2630;52.036;8.514;2022-09-09T16:49:08;19.90;99.90
5222;DHT22;2630;52.036;8.514;2022-09-09T16:51:40;19.90;99.90
5222;DHT22;2630;52.036;8.514;2022-09-09T16:54:07;19.90;99.90
5222;DHT22;2630;52.036;8.514;2022-09-09T16:56:35;19.80;99.90
5222;DHT22;2630;52.036;8.514;2022-09-09T16:59:10;19.80;99.90
5222;DHT22;2630;52.036;8.514;2022-09-09T17:01:37;19.80;99.90
5222;DHT22;2630;52.036;8.514;2022-09-09T17:04:06;19.70;99.90
5222;DHT22;2630;52.036;8.514;2022-09-09T17:06:32;19.60;99.90
5222;DHT22;2630;52.036;8.514;2022-09-09T17:09:06;19.60;99.90
5222;DHT22;2630;52.036;8.514;2022-09-09T17:11:31;19.60;99.90
5222;DHT22;2630;52.036;8.514;2022-09-09T17:13:58;19.50;99.90
5222;DHT22;2630;52.036;8.514;2022-09-09T17:18:53;19.30;99.90
5222;DHT22;2630;52.036;8.514;2022-09-09T17:21:21;18.80;99.90
5222;DHT22;2630;52.036;8.514;2022-09-09T17:23:49;18.60;99.90
5222;DHT22;2630;52.036;8.514;2022-09-09T17:26:17;18.30;99.90
5222;DHT22;2630;52.036;8.514;2022-09-09T17:31:17;18.00;99.90
5222;DHT22;2630;52.036;8.514;2022-09-09T17:33:47;17.80;99.90
5222;DHT22;2630;52.036;8.514;2022-09-09T17:36:17;17.60;99.90
5222;DHT22;2630;52.036;8.514;2022-09-09T17:38:44;17.50;99.90
5222;DHT22;2630;52.036;8.514;2022-09-09T17:41:19;17.40;99.90
5222;DHT22;2630;52.036;8.514;2022-09-09T17:43:46;17.30;99.90
5222;DHT22;2630;52.036;8.514;2022-09-09T17:48:39;17.20;99.90
5222;DHT22;2630;52.036;8.514;2022-09-09T17:51:06;17.20;99.90
5222;DHT22;2630;52.036;8.514;2022-09-09T17:53:38;17.20;99.90
5222;DHT22;2630;52.036;8.514;2022-09-09T17:56:05;17.10;99.90
5222;DHT22;2630;52.036;8.514;2022-09-09T17:58:32;17.20;99.90
5222;DHT22;2630;52.036;8.514;2022-09-09T18:01:24;17.20;99.90
5222;DHT22;2630;52.036;8.514;2022-09-09T18:03:53;17.20;99.90
5222;DHT22;2630;52.036;8.514;2022-09-09T18:06:24;17.20;99.90
5222;DHT22;2630;52.036;8.514;2022-09-09T18:08:54;17.20;99.90
5222;DHT22;2630;52.036;8.514;2022-09-09T18:11:22;17.20;99.90
5222;DHT22;2630;52.036;8.514;2022-09-09T18:13:53;17.20;99.90
5222;DHT22;2630;52.036;8.514;2022-09-09T18:16:20;17.10;99.90
5222;DHT22;2630;52.036;8.514;2022-09-09T18:23:42;17.10;99.90
5222;DHT22;2630;52.036;8.514;2022-09-09T18:26:13;17.10;99.90
5222;DHT22;2630;52.036;8.514;2022-09-09T18:31:10;17.10;99.90
5222;DHT22;2630;52.036;8.514;2022-09-09T18:33:38;17.00;99.90
5222;DHT22;2630;52.036;8.514;2022-09-09T18:36:16;17.10;99.90
5222;DHT22;2630;52.036;8.514;2022-09-09T18:43:50;16.90;99.90
5222;DHT22;2630;52.036;8.514;2022-09-09T18:51:11;16.90;99.90
5222;DHT22;2630;52.036;8.514;2022-09-09T18:53:38;16.90;99.90
5222;DHT22;2630;52.036;8.514;2022-09-09T18:56:09;16.90;99.90
5222;DHT22;2630;52.036;8.514;2022-09-09T18:58:36;16.90;99.90
5222;DHT22;2630;52.036;8.514;2022-09-09T19:01:05;16.80;99.90
5222;DHT22;2630;52.036;8.514;2022-09-09T19:03:34;16.70;99.90
5222;DHT22;2630;52.036;8.514;2022-09-09T19:06:01;16.70;99.90
5222;DHT22;2630;52.036;8.514;2022-09-09T19:08:27;16.70;99.90
5222;DHT22;2630;52.036;8.514;2022-09-09T19:10:53;16.70;99.90
5222;DHT22;2630;52.036;8.514;2022-09-09T19:13:19;16.60;99.90
5222;DHT22;2630;52.036;8.514;2022-09-09T19:15:46;16.50;99.90
5222;DHT22;2630;52.036;8.514;2022-09-09T19:18:11;16.60;99.90
5222;DHT22;2630;52.036;8.514;2022-09-09T19:23:04;16.50;99.90
5222;DHT22;2630;52.036;8.514;2022-09-09T19:25:34;16.50;99.90
5222;DHT22;2630;52.036;8.514;2022-09-09T19:28:02;16.50;99.90
5222;DHT22;2630;52.036;8.514;2022-09-09T19:30:28;16.50;99.90
5222;DHT22;2630;52.036;8.514;2022-09-09T19:32:54;16.50;99.90
5222;DHT22;2630;52.036;8.514;2022-09-09T19:37:46;16.40;99.90
5222;DHT22;2630;52.036;8.514;2022-09-09T19:40:13;16.40;99.90
5222;DHT22;2630;52.036;8.514;2022-09-09T19:42:38;16.40;99.90
5222;DHT22;2630;52.036;8.514;2022-09-09T19:45:06;16.40;99.90
5222;DHT22;2630;52.036;8.514;2022-09-09T19:47:33;16.40;99.90
5222;DHT22;2630;52.036;8.514;2022-09-09T19:49:59;16.30;99.90
5222;DHT22;2630;52.036;8.514;2022-09-09T19:54:50;16.30;99.90
5222;DHT22;2630;52.036;8.514;2022-09-09T19:57:16;16.30;99.90
5222;DHT22;2630;52.036;8.514;2022-09-09T20:04:40;16.10;99.90
5222;DHT22;2630;52.036;8.514;2022-09-09T20:07:06;16.10;99.90
5222;DHT22;2630;52.036;8.514;2022-09-09T20:14:25;15.90;99.90
5222;DHT22;2630;52.036;8.514;2022-09-09T20:16:51;15.90;99.90
5222;DHT22;2630;52.036;8.514;2022-09-09T20:19:17;15.90;99.90
5222;DHT22;2630;52.036;8.514;2022-09-09T20:21:45;15.80;99.90
5222;DHT22;2630;52.036;8.514;2022-09-09T20:24:17;15.80;99.90